AirNav   Everest Fuels
 
 571 users online  

4CL1 Lyon Heliport
Rancho Santa Margarita, California, USA

GOING TO RANCHO SANTA MARGARITA?


FAA INFORMATION EFFECTIVE 10 SEPTEMBER 2020

Location

FAA Identifier: 4CL1
Lat/Long: 33-36-45.6000N 117-35-28.8500W
33-36.760000N 117-35.480833W
33.6126667,-117.5913472
(estimated)
Elevation: 898 ft. / 274 m (estimated)
Variation: 14E (1990)
From city: 2 miles SE of RANCHO SANTA MARGARITA, CA
Time zone: UTC -7 (UTC -8 during Standard Time)
Zip code: 92679

Heliport Operations

Heliport use: Private use. Permission required prior to landing
Activation date: 04/1993
Control tower: no
ARTCC: LOS ANGELES CENTER
FSS: SAN DIEGO FLIGHT SERVICE STATION
Attendance: UNATNDD
Segmented circle: no
Lights: FOR PERIMETER LGTS CALL 714-210-2945.

Heliport Communications

WX ASOS at SNA (14 nm W): PHONE 714-424-0590
WX AWOS-3PT at AJO (17 nm N): 132.175 (951-340-4764)

Nearby radio navigation aids

VOR radial/distance  VOR name  Freq  Var
ELBr105/7.9EL TORO VOR/DME117.2014E
PDZr174/18.6PARADISE VORTAC112.2015E
RALr185/(21.7)RIVERSIDE VOR112.4014E
HDFr230/(22.5)HOMELAND VOR113.4014E
OCNr324/24.0OCEANSIDE VORTAC115.3015E
SLIr099/25.3SEAL BEACH VORTAC115.7015E
POMr146/29.6POMONA VORTAC110.4015E

Heliport Services

Runway Information

Helipad H1

Dimensions: 74 x 40 ft. / 23 x 12 m
Surface: turf
Runway edge lights: PERI
Latitude: 33-36.760000N
Longitude: 117-35.480833W
Elevation: 898.0 ft.
Traffic pattern: leftleft

Heliport Ownership and Management from official FAA records

Ownership: Privately-owned
Owner: WILLIAM LYON
24331 COTO DE CAZA DRIVE
TRABUCO CANYON, CA 92679
Phone 714-210-2945
Manager: MARK FOSTER, MARTIN AVIATION
19300 IKE JONES ROAD
SANTA ANA, CA 92707
Phone (714) 210-2945

Additional Remarks

A52-H1 10 FT TREE 19 FT SE.
FOR CD CTC LOS ANGELES ARTCC AT 661-575-2079.

Instrument Procedures

There are no published instrument procedures at 4CL1.

Some nearby airports with instrument procedures:

KSNA - John Wayne-Orange County Airport (14 nm W)
KAJO - Corona Municipal Airport (17 nm N)
KRAL - Riverside Municipal Airport (22 nm N)
KCNO - Chino Airport (22 nm N)
KNFG - Camp Pendleton MCAS (Munn Field) Airport (22 nm SE)
 
Loc | Ops | Rwys | IFR | FBO | Links
Com | Nav | Svcs | Stats | Notes

San Bernardino International Airport Authority
 
Area around 4CL1 (Lyon Heliport)
 
Road maps at: MapQuest Bing Google
 
Aerial photo
No photo
 
Sectional chart

 
Airport distance calculator
Flying to Lyon Heliport? Find the distance to fly.

From to 4CL1

Sunrise and sunset
Times for 21-Sep-2020
 Local
(UTC-7)
 Zulu
(UTC)
Morning civil twilight06:1513:15
Sunrise06:3913:39
Sunset18:4701:47
Evening civil twilight19:1102:11

Current date and time
Zulu (UTC)  22-Sep-2020 05:35:39
Local (UTC-7)  21-Sep-2020 22:35:39
 
METAR
KSNA 
14nm W 
220453Z 21004KT 7SM FEW010 20/16 A2996 RMK AO2 SLP143 T02000161
KAJO 
17nm N 
220456Z AUTO 26006KT 10SM CLR 21/16 A2996 RMK AO2 SLP139 T02060161
KRAL 
21nm N 
220453Z AUTO 00000KT 10SM CLR 22/14 A2996 RMK AO2 SLP130 T02170139
KRIV 
22nm NE 
220458Z AUTO 00000KT 10SM CLR 21/13 A2998 RMK AO2 SLPNO T02130129
KCNO 
22nm N 
220453Z AUTO 28005KT 10SM FU CLR 22/14 A2996 RMK AO2 SLP141 T02170144
KL18 
23nm SE 
220515Z AUTO 22003KT 7SM CLR 17/16 A2999 RMK AO2
KF70 
23nm E 
220515Z AUTO 00000KT 10SM CLR 19/11 A2999 RMK AO1
KNFG 
24nm SE 
220455Z 00000KT 8SM SCT015 17/12 A2996 RMK AO2 SLP145 T01670122
KSLI 
24nm NW 
220456Z 20001KT 8SM FEW010 20/15 A2997 RMK SLP152 WND DATA ESTMD ALSTG/SLP ESTMD LAST
KFUL 
25nm NW 
220453Z AUTO 00000KT 9SM CLR 21/16 A2995 RMK AO2 SLP139 T02060156
TAF
KSNA 
14nm W 
211728Z 2118/2218 22005KT P6SM SCT016 FM211900 22010KT P6SM SKC FM220300 VRB04KT P6SM BKN010 FM221700 VRB04KT P6SM SCT016
NOTAMs
Click for the latest NOTAMs
NOTAMs are issued by the DoD/FAA and will open in a separate window not controlled by AirNav.

 

 
 

Would you like to see your business listed on this page?

 If your business provides an interesting product or service to pilots, flight crews, aircraft, or users of the Lyon Heliport, you should consider listing it here.  To start the listing process, click on the button below
 
Add a business
 

Other Pages about Lyon Heliport

Update a link
 
Copyright © AirNav, LLC. All rights reserved. Privacy Policy  Contact